Time;durP1;ratioP1;P1;durP2;ratioP2;P2;SDS_P1;SDS_P2;PMS_P1;PMS_P2;Temp;Humidity;BMP_temperature;BMP_pressure;BME280_temperature;BME280_humidity;BME280_pressure;Samples;Min_cycle;Max_cycle;Signal;HPM_P1;HPM_P2
2022/03/22 00:00:41;;;;;;;12.33;5.20;;;0.80;97.50;;;;;;2103320;28;20583;-71
2022/03/22 00:01:42;;;;;;;13.07;5.90;;;0.70;97.30;;;;;;2109881;28;20889;-72
2022/03/22 00:02:42;;;;;;;12.90;5.77;;;0.70;97.50;;;;;;2120546;28;20206;-72
2022/03/22 00:03:46;;;;;;;8.13;5.60;;;0.80;97.40;;;;;;2111730;28;20198;-71
2022/03/22 00:04:46;;;;;;;10.05;5.22;;;0.70;97.20;;;;;;2103437;28;20214;-71
2022/03/22 00:05:47;;;;;;;7.97;4.90;;;0.70;97.40;;;;;;2112190;28;20213;-72
2022/03/22 00:06:48;;;;;;;9.43;5.33;;;0.70;98.00;;;;;;2120718;28;20263;-72
2022/03/22 00:07:48;;;;;;;9.47;4.87;;;0.70;97.30;;;;;;2119157;28;20189;-71
2022/03/22 00:08:49;;;;;;;13.63;5.60;;;0.70;97.40;;;;;;2120553;28;20472;-71
2022/03/22 00:09:50;;;;;;;11.47;6.10;;;0.70;97.50;;;;;;2111434;28;20653;-72
2022/03/22 00:10:50;;;;;;;14.40;6.10;;;0.60;97.50;;;;;;2111466;28;20181;-71
2022/03/22 00:11:51;;;;;;;8.80;5.73;;;0.60;98.10;;;;;;2102549;28;20183;-71
2022/03/22 00:12:51;;;;;;;12.77;5.93;;;0.50;98.00;;;;;;2111556;28;20181;-73
2022/03/22 00:13:53;;;;;;;10.47;5.17;;;0.50;98.20;;;;;;2111616;28;20202;-72
2022/03/22 00:14:54;;;;;;;10.70;5.40;;;0.50;98.50;;;;;;2103708;28;20276;-74
2022/03/22 00:15:55;;;;;;;12.50;5.75;;;0.50;98.40;;;;;;2109119;28;20840;-71
2022/03/22 00:16:56;;;;;;;10.50;5.47;;;0.50;98.50;;;;;;2105880;28;20186;-72
2022/03/22 00:17:57;;;;;;;13.80;5.50;;;0.50;98.50;;;;;;2106128;28;20275;-72
2022/03/22 00:18:57;;;;;;;8.00;5.10;;;0.50;98.40;;;;;;2106175;28;20253;-71
2022/03/22 00:19:59;;;;;;;9.20;5.43;;;0.50;98.20;;;;;;2105860;28;20581;-72
2022/03/22 00:20:59;;;;;;;10.52;5.65;;;0.50;98.30;;;;;;2106112;28;20209;-72
2022/03/22 00:22:02;;;;;;;11.73;5.33;;;0.50;97.80;;;;;;2097020;28;20250;-72
2022/03/22 00:23:02;;;;;;;10.45;5.25;;;0.50;98.10;;;;;;2098059;28;20225;-72
2022/03/22 00:24:04;;;;;;;11.73;7.13;;;0.50;98.00;;;;;;2106262;28;20202;-72
2022/03/22 00:25:07;;;;;;;9.00;5.15;;;0.50;98.10;;;;;;2115101;28;20196;-73
2022/03/22 00:26:07;;;;;;;11.02;5.43;;;0.50;98.20;;;;;;2105970;28;20178;-71
2022/03/22 00:27:09;;;;;;;15.80;7.03;;;0.60;98.00;;;;;;2106161;28;20170;-73
2022/03/22 00:28:09;;;;;;;9.52;5.00;;;0.60;97.80;;;;;;2105840;28;20174;-72
2022/03/22 00:29:10;;;;;;;11.70;6.27;;;0.60;97.50;;;;;;2097548;28;20172;-73
2022/03/22 00:30:11;;;;;;;10.30;5.67;;;0.60;97.20;;;;;;2105908;28;20167;-72
2022/03/22 00:31:12;;;;;;;8.77;4.97;;;0.60;97.40;;;;;;2105118;28;20551;-72
2022/03/22 00:32:13;;;;;;;16.55;5.32;;;0.60;97.20;;;;;;2097294;28;20179;-72
2022/03/22 00:33:13;;;;;;;15.60;5.77;;;0.50;96.80;;;;;;2106089;28;20182;-71
2022/03/22 00:34:14;;;;;;;10.63;5.63;;;0.50;96.90;;;;;;2106180;28;20198;-74
2022/03/22 00:35:18;;;;;;;13.30;5.60;;;0.40;97.30;;;;;;2106001;28;20180;-72
2022/03/22 00:36:18;;;;;;;10.48;5.57;;;0.40;97.50;;;;;;2106427;28;20193;-72
2022/03/22 00:37:19;;;;;;;11.83;5.37;;;0.40;97.50;;;;;;2106521;28;20179;-71
2022/03/22 00:38:20;;;;;;;11.57;5.80;;;0.40;97.40;;;;;;2106634;28;20861;-72
2022/03/22 00:39:21;;;;;;;10.10;5.63;;;0.40;97.50;;;;;;2097680;28;20569;-73
2022/03/22 00:40:24;;;;;;;11.60;6.27;;;0.40;97.50;;;;;;2097383;28;20201;-72
2022/03/22 00:41:25;;;;;;;10.52;5.82;;;0.40;97.30;;;;;;2097064;28;20288;-72
2022/03/22 00:42:25;;;;;;;9.90;6.47;;;0.40;97.30;;;;;;2097687;28;20513;-71
2022/03/22 00:43:26;;;;;;;12.33;5.73;;;0.50;97.30;;;;;;2106364;28;20243;-72
2022/03/22 00:44:27;;;;;;;11.80;5.63;;;0.50;97.30;;;;;;2105589;28;20215;-73
2022/03/22 00:45:32;;;;;;;11.23;6.03;;;0.50;97.40;;;;;;2103340;28;20174;-72
2022/03/22 00:46:32;;;;;;;10.55;5.57;;;0.50;97.30;;;;;;2098186;28;20205;-73
2022/03/22 00:47:33;;;;;;;13.57;6.37;;;0.50;97.10;;;;;;2105918;28;20185;-73
2022/03/22 00:48:34;;;;;;;14.73;6.87;;;0.50;97.10;;;;;;2097264;28;20642;-72
2022/03/22 00:49:36;;;;;;;9.70;5.43;;;0.50;97.60;;;;;;2097632;28;20179;-72
2022/03/22 00:50:41;;;;;;;10.65;5.90;;;0.50;96.90;;;;;;2106024;28;20235;-72
2022/03/22 00:51:41;;;;;;;12.90;6.43;;;0.40;97.00;;;;;;2105479;28;20181;-72
2022/03/22 00:52:43;;;;;;;14.17;6.53;;;0.40;97.10;;;;;;2105796;28;20182;-72
2022/03/22 00:53:45;;;;;;;13.90;6.57;;;0.40;96.90;;;;;;2105752;28;20194;-72
2022/03/22 00:54:46;;;;;;;10.98;6.20;;;0.40;96.90;;;;;;2105815;28;20190;-72
2022/03/22 00:55:48;;;;;;;10.07;5.63;;;0.40;96.90;;;;;;2114334;28;20184;-72
2022/03/22 00:56:49;;;;;;;10.55;5.75;;;0.30;96.90;;;;;;2105521;28;20189;-73
2022/03/22 00:57:52;;;;;;;15.00;5.93;;;0.30;97.10;;;;;;2105707;28;20181;-71
2022/03/22 01:00:01;;;;;;;9.20;5.95;;;0.30;97.20;;;;;;2105566;28;20177;-72
2022/03/22 01:00:14;;;;;;;12.02;5.60;;;0.30;97.30;;;;;;2105554;28;20193;-72
2022/03/22 01:01:14;;;;;;;10.70;6.15;;;0.30;97.60;;;;;;2105019;28;20174;-72
2022/03/22 01:02:15;;;;;;;14.83;6.10;;;0.30;97.80;;;;;;2097396;28;20183;-73
2022/03/22 01:03:28;;;;;;;12.40;5.73;;;0.30;97.80;;;;;;2105558;28;20224;-72
2022/03/22 01:04:29;;;;;;;16.77;6.53;;;0.20;97.90;;;;;;2097297;28;20608;-73
2022/03/22 01:05:31;;;;;;;10.73;6.30;;;0.30;98.00;;;;;;2097153;28;20192;-72
2022/03/22 01:06:31;;;;;;;13.38;5.72;;;0.30;97.90;;;;;;2105690;28;20185;-72
2022/03/22 01:07:33;;;;;;;11.93;6.60;;;0.20;97.90;;;;;;2097094;28;20182;-72
2022/03/22 01:08:34;;;;;;;9.45;5.57;;;0.20;97.70;;;;;;2097638;28;20262;-72
2022/03/22 01:09:34;;;;;;;16.00;6.40;;;0.30;97.70;;;;;;2105768;28;20181;-72
2022/03/22 01:10:39;;;;;;;13.07;5.70;;;0.30;97.60;;;;;;2114148;28;20303;-73
2022/03/22 01:11:42;;;;;;;11.35;5.93;;;0.20;97.70;;;;;;2105026;28;20321;-72
2022/03/22 01:12:44;;;;;;;9.90;6.07;;;0.30;97.60;;;;;;2097610;28;20182;-72
2022/03/22 01:13:45;;;;;;;9.48;5.90;;;0.20;97.50;;;;;;2097307;28;20218;-71
2022/03/22 01:14:46;;;;;;;7.68;5.30;;;0.20;97.50;;;;;;2106007;28;20185;-71
2022/03/22 01:15:47;;;;;;;9.60;5.60;;;0.10;97.80;;;;;;2114780;28;20231;-73
2022/03/22 01:16:48;;;;;;;12.97;6.47;;;0.10;98.10;;;;;;2105648;28;20167;-72
2022/03/22 01:17:54;;;;;;;11.67;6.10;;;0.10;97.90;;;;;;2105699;28;20421;-71
2022/03/22 01:18:54;;;;;;;9.88;6.18;;;0.20;98.10;;;;;;2105676;28;20185;-72
2022/03/22 01:19:56;;;;;;;8.73;5.90;;;0.20;97.80;;;;;;2105639;28;20183;-71
2022/03/22 01:20:57;;;;;;;10.70;5.80;;;0.20;97.60;;;;;;2105743;28;20186;-72
2022/03/22 01:21:59;;;;;;;12.57;6.30;;;0.30;97.20;;;;;;2105092;28;20261;-73
2022/03/22 01:23:04;;;;;;;8.35;6.13;;;0.30;97.20;;;;;;2105920;28;20174;-72
2022/03/22 01:24:07;;;;;;;11.73;6.78;;;0.20;96.90;;;;;;2105520;28;20622;-72
2022/03/22 01:25:21;;;;;;;10.45;5.90;;;0.20;97.40;;;;;;2106213;28;20175;-73
2022/03/22 01:26:21;;;;;;;9.05;5.93;;;0.20;97.60;;;;;;2105675;28;20178;-72
2022/03/22 01:27:22;;;;;;;9.90;5.93;;;0.20;97.80;;;;;;2105114;28;20184;-73
2022/03/22 01:28:22;;;;;;;12.30;6.50;;;0.20;98.00;;;;;;2105012;28;20178;-72
2022/03/22 01:29:23;;;;;;;10.70;5.93;;;0.10;97.70;;;;;;2097285;28;20250;-72
2022/03/22 01:30:25;;;;;;;10.17;5.97;;;0.10;98.10;;;;;;2097144;28;20191;-72
2022/03/22 01:31:25;;;;;;;10.88;5.88;;;0.10;98.40;;;;;;2096861;28;20170;-72
2022/03/22 01:32:26;;;;;;;9.77;5.50;;;0.10;98.50;;;;;;2105508;28;20602;-72
2022/03/22 01:33:27;;;;;;;10.10;6.47;;;0.10;98.50;;;;;;2105241;28;20694;-72
2022/03/22 01:34:27;;;;;;;11.00;6.30;;;0.10;98.30;;;;;;2096927;28;20179;-72
2022/03/22 01:35:28;;;;;;;9.27;6.13;;;0.00;98.00;;;;;;2097105;28;20182;-73
2022/03/22 01:36:31;;;;;;;9.03;6.03;;;0.00;98.00;;;;;;2114563;28;20196;-72
2022/03/22 01:37:32;;;;;;;16.27;6.00;;;0.00;98.10;;;;;;2114578;28;20180;-72
2022/03/22 01:38:33;;;;;;;10.75;6.32;;;0.00;98.20;;;;;;2097057;28;20204;-72
2022/03/22 01:39:33;;;;;;;10.37;6.43;;;-0.10;98.70;;;;;;2097129;28;20206;-72
2022/03/22 01:40:35;;;;;;;10.10;6.77;;;0.00;98.40;;;;;;2105299;28;20191;-72
2022/03/22 01:41:35;;;;;;;13.07;6.97;;;0.00;98.20;;;;;;2104233;28;20201;-73
2022/03/22 01:42:38;;;;;;;11.23;6.50;;;0.00;98.30;;;;;;2104290;28;20185;-73
2022/03/22 01:43:38;;;;;;;10.77;6.57;;;0.00;98.20;;;;;;2098518;28;20620;-73
2022/03/22 01:44:39;;;;;;;11.03;6.50;;;-0.10;98.20;;;;;;2105187;28;20222;-72
2022/03/22 01:45:40;;;;;;;15.60;7.23;;;-0.10;98.20;;;;;;2097068;28;20191;-72
2022/03/22 01:46:40;;;;;;;10.60;5.97;;;-0.10;98.20;;;;;;2105371;28;20193;-73
2022/03/22 01:47:43;;;;;;;11.73;6.13;;;-0.10;98.30;;;;;;2114487;28;20246;-73
2022/03/22 01:48:44;;;;;;;11.18;7.03;;;-0.10;98.40;;;;;;2105291;28;20228;-73
2022/03/22 01:49:46;;;;;;;9.07;5.63;;;-0.10;98.20;;;;;;2105451;28;20182;-73
2022/03/22 01:50:47;;;;;;;13.80;6.30;;;-0.10;98.20;;;;;;2105336;28;20219;-73
2022/03/22 01:51:49;;;;;;;11.47;6.03;;;-0.10;98.20;;;;;;2104963;28;20237;-73
2022/03/22 01:52:50;;;;;;;11.77;6.60;;;-0.20;98.10;;;;;;2105001;28;20530;-72
2022/03/22 01:53:51;;;;;;;8.65;5.63;;;-0.20;98.40;;;;;;2096969;28;20219;-74
2022/03/22 01:54:55;;;;;;;10.57;6.30;;;-0.10;98.50;;;;;;2105137;28;20179;-73
2022/03/22 01:55:57;;;;;;;11.43;6.63;;;-0.10;98.50;;;;;;2114399;28;20656;-73
2022/03/22 01:56:57;;;;;;;11.73;6.63;;;-0.10;98.60;;;;;;2114342;28;20181;-73
2022/03/22 01:57:58;;;;;;;11.80;5.70;;;-0.10;98.60;;;;;;2105333;28;20827;-73
2022/03/22 01:58:59;;;;;;;10.43;6.03;;;-0.10;98.30;;;;;;2105495;28;20166;-73
2022/03/22 02:00:05;;;;;;;11.87;6.80;;;-0.10;98.00;;;;;;2114317;28;20169;-74
2022/03/22 02:06:26;;;;;;;11.60;6.43;;;-0.20;97.40;;;;;;2104973;28;20190;-74
2022/03/22 02:07:31;;;;;;;12.93;6.53;;;-0.20;97.50;;;;;;2099480;28;20192;-74
2022/03/22 02:08:32;;;;;;;11.68;6.78;;;-0.20;97.60;;;;;;2088485;28;20190;-73
2022/03/22 02:09:33;;;;;;;9.90;6.20;;;-0.20;97.70;;;;;;2092535;28;20733;-72
2022/03/22 02:10:35;;;;;;;9.98;5.72;;;-0.20;97.90;;;;;;2113612;28;20193;-73
2022/03/22 02:11:35;;;;;;;11.60;6.72;;;-0.10;97.70;;;;;;2104200;28;20185;-73
2022/03/22 02:12:36;;;;;;;10.33;5.77;;;-0.20;97.70;;;;;;2105122;28;20182;-74
2022/03/22 02:13:36;;;;;;;10.00;5.87;;;-0.20;97.80;;;;;;2105014;28;20206;-73
2022/03/22 02:14:37;;;;;;;10.50;6.23;;;-0.20;97.90;;;;;;2114173;28;20181;-74
2022/03/22 02:15:38;;;;;;;10.03;5.97;;;-0.30;98.00;;;;;;2114151;28;20185;-73
2022/03/22 02:16:39;;;;;;;9.10;5.53;;;-0.20;98.20;;;;;;2105189;28;20591;-73
2022/03/22 02:17:44;;;;;;;11.10;6.97;;;-0.20;98.10;;;;;;2096795;28;20253;-73
2022/03/22 02:18:45;;;;;;;12.30;6.40;;;-0.20;98.00;;;;;;2105043;28;20185;-73
2022/03/22 02:19:47;;;;;;;10.48;6.22;;;-0.20;98.00;;;;;;2096388;28;20693;-72
2022/03/22 02:20:48;;;;;;;10.13;6.43;;;-0.20;98.50;;;;;;2096640;28;20186;-74
2022/03/22 02:21:58;;;;;;;10.50;6.07;;;-0.20;98.00;;;;;;2102744;28;20181;-72
2022/03/22 02:23:20;;;;;;;13.35;6.50;;;-0.20;97.70;;;;;;2105302;28;20277;-72
2022/03/22 02:24:21;;;;;;;9.15;5.45;;;-0.20;98.00;;;;;;2104798;28;20205;-72
2022/03/22 02:25:22;;;;;;;11.47;6.67;;;-0.20;98.00;;;;;;2105166;28;20182;-73
2022/03/22 02:26:24;;;;;;;11.27;6.30;;;-0.30;97.90;;;;;;2114001;28;20175;-72
2022/03/22 02:27:28;;;;;;;12.48;6.35;;;-0.30;98.00;;;;;;2114155;28;20174;-72
2022/03/22 02:28:29;;;;;;;10.40;5.97;;;-0.30;98.10;;;;;;2104598;28;20174;-72
2022/03/22 02:29:30;;;;;;;11.30;6.32;;;-0.30;98.20;;;;;;2105333;28;20185;-74
2022/03/22 02:30:31;;;;;;;11.97;6.70;;;-0.20;98.10;;;;;;2105003;28;20273;-72
2022/03/22 02:31:33;;;;;;;12.30;7.45;;;-0.30;98.00;;;;;;2096398;28;20704;-73
2022/03/22 02:32:33;;;;;;;11.70;7.05;;;-0.20;97.90;;;;;;2105109;28;20174;-73
2022/03/22 02:33:34;;;;;;;12.13;6.60;;;-0.20;97.90;;;;;;2114014;28;20189;-73
2022/03/22 02:34:40;;;;;;;8.97;5.67;;;-0.20;97.80;;;;;;2113866;28;20173;-72
2022/03/22 02:35:41;;;;;;;12.52;6.43;;;-0.20;97.70;;;;;;2114069;28;20222;-72
2022/03/22 02:36:42;;;;;;;11.60;6.60;;;-0.20;97.60;;;;;;2114072;28;20590;-72
2022/03/22 02:37:42;;;;;;;11.57;6.07;;;-0.20;97.40;;;;;;2114067;28;20528;-72
2022/03/22 02:38:43;;;;;;;9.27;5.87;;;-0.20;97.40;;;;;;2113234;28;20215;-72
2022/03/22 02:39:44;;;;;;;10.83;7.10;;;-0.20;97.40;;;;;;2113344;28;20181;-72
2022/03/22 02:40:46;;;;;;;13.13;6.97;;;-0.20;97.40;;;;;;2104936;28;20181;-72
2022/03/22 02:41:51;;;;;;;10.20;6.45;;;-0.20;97.50;;;;;;2096398;28;20179;-72
2022/03/22 02:42:54;;;;;;;10.60;6.85;;;-0.20;97.50;;;;;;2097096;28;20202;-72
2022/03/22 02:43:55;;;;;;;9.55;6.35;;;-0.20;97.50;;;;;;2097448;28;20197;-72
2022/03/22 02:44:55;;;;;;;9.77;6.15;;;-0.20;97.70;;;;;;2096920;28;20265;-72
2022/03/22 02:45:56;;;;;;;11.50;6.00;;;-0.20;97.60;;;;;;2096011;28;20187;-74
2022/03/22 02:46:57;;;;;;;11.00;6.17;;;-0.20;97.40;;;;;;2096550;28;20244;-75
2022/03/22 02:47:58;;;;;;;12.83;6.57;;;-0.20;97.40;;;;;;2088336;28;20175;-72
2022/03/22 02:48:58;;;;;;;17.93;5.90;;;-0.20;97.40;;;;;;2088352;28;20180;-72
2022/03/22 02:49:59;;;;;;;12.50;6.80;;;-0.20;97.10;;;;;;2096668;28;20215;-72
2022/03/22 02:51:00;;;;;;;13.10;6.20;;;-0.20;97.20;;;;;;2105581;28;20260;-72
2022/03/22 02:52:01;;;;;;;12.87;7.17;;;-0.20;97.30;;;;;;2104903;28;20179;-73
2022/03/22 02:53:02;;;;;;;10.75;6.13;;;-0.20;97.30;;;;;;2105757;28;20174;-72
2022/03/22 02:54:02;;;;;;;12.53;6.20;;;-0.20;97.00;;;;;;2096527;28;20207;-74
2022/03/22 02:55:06;;;;;;;11.57;6.47;;;-0.20;96.80;;;;;;2088413;28;20187;-73
2022/03/22 02:56:06;;;;;;;11.95;6.10;;;-0.20;96.80;;;;;;2088401;28;20183;-73
2022/03/22 02:57:07;;;;;;;9.07;6.07;;;-0.20;96.90;;;;;;2088380;28;20191;-72
2022/03/22 02:58:08;;;;;;;9.60;6.27;;;-0.20;96.90;;;;;;2101565;28;20190;-72
2022/03/22 02:59:09;;;;;;;12.00;6.07;;;-0.20;96.70;;;;;;2104937;28;20178;-72
2022/03/22 03:00:11;;;;;;;11.97;5.90;;;-0.20;96.60;;;;;;2104797;28;20207;-71
2022/03/22 03:01:12;;;;;;;11.82;6.63;;;-0.20;97.00;;;;;;2104353;28;20205;-72
2022/03/22 03:02:13;;;;;;;11.37;6.60;;;-0.30;97.10;;;;;;2104612;28;20250;-74
2022/03/22 03:03:14;;;;;;;10.30;5.93;;;-0.30;97.10;;;;;;2104882;28;20170;-72
2022/03/22 03:04:14;;;;;;;13.80;6.05;;;-0.30;97.60;;;;;;2104674;28;20202;-74
2022/03/22 03:05:17;;;;;;;14.57;6.30;;;-0.30;97.20;;;;;;2104829;28;20229;-72
2022/03/22 03:06:17;;;;;;;11.05;5.97;;;-0.30;97.20;;;;;;2104778;28;20824;-71
2022/03/22 03:07:18;;;;;;;11.07;6.37;;;-0.30;97.40;;;;;;2104983;28;20189;-73
2022/03/22 03:08:19;;;;;;;10.70;5.83;;;-0.30;97.10;;;;;;2113932;28;20181;-73
2022/03/22 03:09:20;;;;;;;11.40;6.18;;;-0.30;97.30;;;;;;2113944;28;21189;-72
2022/03/22 03:10:20;;;;;;;10.73;6.10;;;-0.30;97.50;;;;;;2113926;28;20210;-72
2022/03/22 03:11:21;;;;;;;10.13;6.37;;;-0.40;97.50;;;;;;2113487;28;21167;-73
2022/03/22 03:12:22;;;;;;;9.17;5.20;;;-0.30;97.80;;;;;;2104695;28;20182;-72
2022/03/22 03:13:22;;;;;;;8.47;5.37;;;-0.30;97.40;;;;;;2105008;28;20178;-73
2022/03/22 03:14:38;;;;;;;10.60;6.00;;;-0.20;97.10;;;;;;2104906;28;20181;-72
2022/03/22 03:15:39;;;;;;;8.65;5.75;;;-0.20;97.00;;;;;;2098670;28;20182;-73
2022/03/22 03:16:40;;;;;;;10.77;5.53;;;-0.20;96.60;;;;;;2106898;28;20175;-72
2022/03/22 03:17:40;;;;;;;9.97;5.43;;;-0.20;96.50;;;;;;2104986;28;20237;-72
2022/03/22 03:18:41;;;;;;;12.03;6.20;;;-0.20;96.50;;;;;;2104778;28;20435;-73
2022/03/22 03:19:42;;;;;;;11.77;5.83;;;-0.20;96.60;;;;;;2112080;28;20194;-72
2022/03/22 03:20:43;;;;;;;12.45;6.53;;;-0.20;96.50;;;;;;2113221;28;20681;-72
2022/03/22 03:21:44;;;;;;;10.50;6.37;;;-0.20;96.30;;;;;;2113414;28;20180;-72
2022/03/22 03:22:44;;;;;;;11.13;5.83;;;-0.20;96.30;;;;;;2113902;28;20174;-71
2022/03/22 03:23:45;;;;;;;9.93;5.60;;;-0.30;96.30;;;;;;2113909;28;20200;-73
2022/03/22 03:24:46;;;;;;;8.43;4.80;;;-0.30;96.40;;;;;;2113989;28;20221;-72
2022/03/22 03:25:46;;;;;;;10.70;5.50;;;-0.40;96.70;;;;;;2105020;28;20207;-72
2022/03/22 03:26:47;;;;;;;9.87;5.53;;;-0.40;97.00;;;;;;2104627;28;20175;-73
2022/03/22 03:27:48;;;;;;;9.10;5.80;;;-0.40;97.00;;;;;;2096427;28;20286;-73
2022/03/22 03:28:48;;;;;;;9.00;6.13;;;-0.40;97.30;;;;;;2096431;28;20175;-73
2022/03/22 03:29:50;;;;;;;8.63;5.37;;;-0.30;97.20;;;;;;2104943;28;20182;-73
2022/03/22 03:30:51;;;;;;;10.50;5.43;;;-0.30;97.10;;;;;;2104851;28;20257;-73
2022/03/22 03:31:52;;;;;;;8.73;5.47;;;-0.30;97.00;;;;;;2104378;28;20182;-72
2022/03/22 03:32:53;;;;;;;12.07;5.93;;;-0.30;97.20;;;;;;2104938;28;20182;-71
2022/03/22 03:33:54;;;;;;;11.40;5.30;;;-0.30;97.20;;;;;;2096585;28;20183;-73
2022/03/22 03:34:55;;;;;;;10.35;5.80;;;-0.30;97.20;;;;;;2105039;28;20170;-71
2022/03/22 03:35:56;;;;;;;8.73;5.50;;;-0.30;97.30;;;;;;2104804;28;20182;-73
2022/03/22 03:36:57;;;;;;;8.57;5.30;;;-0.30;97.10;;;;;;2104940;28;20182;-73
2022/03/22 03:37:57;;;;;;;9.03;5.73;;;-0.40;97.00;;;;;;2113757;28;20181;-74
2022/03/22 03:38:59;;;;;;;8.57;5.63;;;-0.30;97.10;;;;;;2104347;28;20183;-72
2022/03/22 03:39:59;;;;;;;7.97;5.28;;;-0.30;97.10;;;;;;2104634;28;20268;-73
2022/03/22 03:42:20;;;;;;;8.85;5.20;;;-0.20;97.10;;;;;;2099082;28;20186;-73
2022/03/22 03:43:20;;;;;;;9.87;6.33;;;-0.30;96.70;;;;;;2107321;28;20186;-72
2022/03/22 03:47:15;;;;;;;8.57;5.65;;;-0.30;96.60;;;;;;2077521;28;20188;-74
2022/03/22 03:48:15;;;;;;;11.25;5.95;;;-0.30;96.80;;;;;;2113627;28;20192;-73
2022/03/22 03:49:16;;;;;;;9.00;5.50;;;-0.30;96.70;;;;;;2113902;28;20552;-74
2022/03/22 03:50:17;;;;;;;9.07;5.03;;;-0.40;96.80;;;;;;2113612;28;20173;-72
2022/03/22 03:51:19;;;;;;;9.60;5.70;;;-0.40;96.80;;;;;;2113568;28;20226;-73
2022/03/22 03:52:28;;;;;;;9.77;5.75;;;-0.40;96.80;;;;;;2115373;28;20265;-74
2022/03/22 03:53:29;;;;;;;9.57;5.75;;;-0.40;96.90;;;;;;2106260;28;20182;-73
2022/03/22 03:54:29;;;;;;;7.80;5.10;;;-0.40;96.90;;;;;;2106204;28;20240;-73
2022/03/22 03:55:30;;;;;;;8.57;5.00;;;-0.40;96.70;;;;;;2115386;28;20173;-73
2022/03/22 03:56:31;;;;;;;8.13;4.97;;;-0.30;96.60;;;;;;2115172;28;20179;-73
2022/03/22 03:57:32;;;;;;;10.97;5.63;;;-0.30;96.50;;;;;;2106347;28;20182;-72
2022/03/22 03:58:33;;;;;;;10.23;5.45;;;-0.30;96.20;;;;;;2106387;28;20209;-73
2022/03/22 03:59:35;;;;;;;8.87;5.30;;;-0.40;96.30;;;;;;2097948;28;20967;-73
2022/03/22 04:00:35;;;;;;;10.05;5.97;;;-0.40;96.80;;;;;;2089408;28;20182;-72
2022/03/22 04:01:36;;;;;;;9.27;5.30;;;-0.40;96.80;;;;;;2097231;28;20202;-74
2022/03/22 04:02:36;;;;;;;10.27;5.03;;;-0.40;97.00;;;;;;2106103;28;20181;-73
2022/03/22 04:03:39;;;;;;;9.10;4.60;;;-0.40;96.90;;;;;;2097576;28;20183;-73
2022/03/22 04:04:41;;;;;;;9.35;5.22;;;-0.40;96.80;;;;;;2106181;28;20311;-74
2022/03/22 04:05:41;;;;;;;12.40;5.60;;;-0.40;97.00;;;;;;2106343;28;20174;-73
2022/03/22 04:06:42;;;;;;;9.27;5.07;;;-0.40;97.00;;;;;;2106054;28;20166;-73
2022/03/22 04:07:43;;;;;;;7.57;4.93;;;-0.50;97.00;;;;;;2106219;28;20709;-73
2022/03/22 04:08:43;;;;;;;8.57;5.30;;;-0.40;96.90;;;;;;2106088;28;20170;-73
2022/03/22 04:09:44;;;;;;;8.67;5.30;;;-0.40;96.40;;;;;;2106146;28;20627;-73
2022/03/22 04:10:45;;;;;;;9.37;4.40;;;-0.40;96.20;;;;;;2106251;28;20260;-73
2022/03/22 04:11:46;;;;;;;8.27;5.40;;;-0.40;96.10;;;;;;2104872;28;20184;-73
2022/03/22 04:12:46;;;;;;;8.90;5.13;;;-0.40;96.00;;;;;;2106082;28;20178;-73
2022/03/22 04:13:47;;;;;;;9.53;4.70;;;-0.30;96.10;;;;;;2106271;28;20560;-73
2022/03/22 04:14:51;;;;;;;9.07;4.90;;;-0.30;96.00;;;;;;2115276;28;20253;-73
2022/03/22 04:15:52;;;;;;;8.52;5.22;;;-0.30;96.00;;;;;;2115182;28;20184;-72
2022/03/22 04:16:53;;;;;;;12.48;5.95;;;-0.30;95.70;;;;;;2115203;28;20181;-73
2022/03/22 04:17:53;;;;;;;9.67;5.20;;;-0.40;95.70;;;;;;2105988;28;20590;-73
2022/03/22 04:18:54;;;;;;;6.80;4.30;;;-0.40;95.80;;;;;;2097691;28;20576;-73
2022/03/22 04:19:54;;;;;;;8.07;4.57;;;-0.40;95.90;;;;;;2097799;28;20720;-72
2022/03/22 04:20:55;;;;;;;6.80;4.23;;;-0.40;95.90;;;;;;2097505;28;20574;-73
2022/03/22 04:21:56;;;;;;;9.23;5.67;;;-0.40;96.30;;;;;;2105459;28;20170;-73
2022/03/22 04:22:57;;;;;;;11.37;5.33;;;-0.40;96.20;;;;;;2114426;28;20232;-74
2022/03/22 04:23:59;;;;;;;7.50;4.97;;;-0.40;96.20;;;;;;2114269;28;20196;-72
2022/03/22 04:25:00;;;;;;;8.20;4.82;;;-0.40;96.20;;;;;;2114861;28;20243;-72
2022/03/22 04:26:01;;;;;;;8.73;5.10;;;-0.50;96.30;;;;;;2106122;28;20631;-72
2022/03/22 04:33:38;;;;;;;10.25;4.63;;;-0.60;96.70;;;;;;2111053;28;20176;-73
2022/03/22 04:34:39;;;;;;;8.97;5.13;;;-0.60;96.80;;;;;;2114945;28;20265;-73
2022/03/22 04:35:40;;;;;;;11.70;4.72;;;-0.70;97.10;;;;;;2105657;28;20211;-73
2022/03/22 04:36:40;;;;;;;6.70;4.53;;;-0.70;97.40;;;;;;2106063;28;20657;-74
2022/03/22 04:37:42;;;;;;;9.00;5.00;;;-0.60;97.50;;;;;;2105762;28;20565;-72
2022/03/22 04:38:42;;;;;;;7.93;5.00;;;-0.60;97.50;;;;;;2106069;28;20209;-72
2022/03/22 04:39:45;;;;;;;8.93;5.53;;;-0.60;97.40;;;;;;2114736;28;20177;-72
2022/03/22 04:40:47;;;;;;;8.63;4.63;;;-0.60;97.30;;;;;;2105876;28;20213;-73
2022/03/22 04:41:47;;;;;;;9.10;5.13;;;-0.60;97.20;;;;;;2105908;28;20259;-72
2022/03/22 04:42:50;;;;;;;14.20;5.17;;;-0.60;97.20;;;;;;2114992;28;20259;-72
2022/03/22 04:43:51;;;;;;;7.18;4.95;;;-0.60;96.90;;;;;;2105528;28;20213;-74
2022/03/22 04:44:51;;;;;;;9.20;4.38;;;-0.60;96.70;;;;;;2106088;28;20216;-75
2022/03/22 04:45:52;;;;;;;7.33;4.57;;;-0.60;96.50;;;;;;2105728;28;20208;-73
2022/03/22 04:46:53;;;;;;;8.97;5.40;;;-0.50;96.10;;;;;;2105847;28;20174;-75
2022/03/22 04:47:54;;;;;;;9.43;4.95;;;-0.60;95.80;;;;;;2105600;28;20182;-72
2022/03/22 04:48:54;;;;;;;7.33;4.50;;;-0.50;95.40;;;;;;2105893;28;20189;-73
2022/03/22 04:49:55;;;;;;;9.60;5.57;;;-0.50;95.50;;;;;;2105741;28;20285;-72
2022/03/22 04:57:32;;;;;;;11.00;4.70;;;-0.60;94.80;;;;;;2105938;28;20185;-72
2022/03/22 04:58:33;;;;;;;8.37;4.97;;;-0.60;95.00;;;;;;2099855;28;20553;-72
2022/03/22 04:59:34;;;;;;;8.88;4.95;;;-0.70;95.10;;;;;;2097530;28;20653;-72
2022/03/22 05:00:35;;;;;;;7.13;4.30;;;-0.60;95.30;;;;;;2097644;28;20183;-72
2022/03/22 05:01:35;;;;;;;7.70;4.77;;;-0.70;95.40;;;;;;2105348;28;20416;-73
2022/03/22 05:02:36;;;;;;;7.63;4.77;;;-0.60;95.10;;;;;;2105483;28;20643;-73
2022/03/22 05:03:37;;;;;;;9.90;5.03;;;-0.60;95.10;;;;;;2105898;28;20268;-73
2022/03/22 05:04:38;;;;;;;7.87;4.67;;;-0.60;95.20;;;;;;2105554;28;20236;-73
2022/03/22 05:06:57;;;;;;;9.85;4.55;;;-0.70;95.40;;;;;;2114712;28;20415;-74
2022/03/22 05:07:58;;;;;;;9.33;4.47;;;-0.80;95.80;;;;;;2105778;28;20214;-72
2022/03/22 05:08:59;;;;;;;7.17;4.63;;;-0.70;96.00;;;;;;2105451;28;20313;-73
2022/03/22 05:09:59;;;;;;;7.90;4.97;;;-0.70;96.20;;;;;;2105696;28;20161;-72
2022/03/22 05:11:00;;;;;;;10.77;4.50;;;-0.70;96.30;;;;;;2105564;28;20174;-73
2022/03/22 05:12:02;;;;;;;9.17;4.17;;;-0.80;96.40;;;;;;2104920;28;20956;-73
2022/03/22 05:13:04;;;;;;;10.45;5.25;;;-0.70;96.50;;;;;;2105590;28;20211;-73
2022/03/22 05:14:05;;;;;;;9.30;5.15;;;-0.70;96.40;;;;;;2105566;28;20567;-73
2022/03/22 05:15:07;;;;;;;8.77;5.07;;;-0.80;96.30;;;;;;2105458;28;20182;-74
2022/03/22 05:16:08;;;;;;;8.18;4.72;;;-0.70;96.30;;;;;;2105803;28;20577;-72
2022/03/22 05:17:11;;;;;;;8.05;4.93;;;-0.70;96.20;;;;;;2114773;28;20708;-72
2022/03/22 05:18:13;;;;;;;10.18;4.60;;;-0.60;95.70;;;;;;2105645;28;20182;-74
2022/03/22 05:19:13;;;;;;;7.88;4.45;;;-0.60;95.40;;;;;;2105902;28;20181;-72
2022/03/22 05:20:15;;;;;;;9.17;4.60;;;-0.60;94.80;;;;;;2114137;28;20731;-73
2022/03/22 05:21:16;;;;;;;6.88;4.40;;;-0.60;95.00;;;;;;2113675;28;20541;-71
2022/03/22 05:22:18;;;;;;;8.63;4.63;;;-0.60;95.20;;;;;;2105656;28;20545;-73
2022/03/22 05:23:18;;;;;;;6.60;4.88;;;-0.60;95.10;;;;;;2097519;28;20178;-72
2022/03/22 05:24:20;;;;;;;8.10;5.17;;;-0.60;95.10;;;;;;2105751;28;20209;-72
2022/03/22 05:25:20;;;;;;;11.10;5.28;;;-0.60;95.10;;;;;;2105543;28;20691;-73
2022/03/22 05:26:21;;;;;;;8.80;4.73;;;-0.60;94.80;;;;;;2105685;28;20228;-73
2022/03/22 05:27:22;;;;;;;9.87;4.50;;;-0.60;94.80;;;;;;2114830;28;20284;-72
2022/03/22 05:28:23;;;;;;;8.90;5.15;;;-0.60;95.50;;;;;;2114472;28;20185;-72
2022/03/22 05:29:23;;;;;;;7.97;5.37;;;-0.60;95.60;;;;;;2105613;28;20382;-72
2022/03/22 05:30:24;;;;;;;10.53;5.57;;;-0.60;95.70;;;;;;2105710;28;20205;-73
2022/03/22 05:31:25;;;;;;;10.83;4.77;;;-0.50;96.00;;;;;;2096726;28;20190;-72
2022/03/22 05:32:25;;;;;;;11.00;5.73;;;-0.40;95.60;;;;;;2105540;28;20197;-72
2022/03/22 05:33:26;;;;;;;8.67;5.53;;;-0.40;95.30;;;;;;2114208;28;20674;-73
2022/03/22 05:34:27;;;;;;;10.20;5.30;;;-0.40;95.20;;;;;;2105345;28;20183;-71
2022/03/22 05:35:28;;;;;;;13.27;5.40;;;-0.30;95.20;;;;;;2105329;28;20227;-71
2022/03/22 05:36:28;;;;;;;12.60;6.25;;;-0.30;95.20;;;;;;2105254;28;20826;-72
2022/03/22 05:37:29;;;;;;;9.53;5.20;;;-0.30;95.20;;;;;;2114377;28;20186;-72
2022/03/22 05:38:31;;;;;;;10.40;5.40;;;-0.30;95.20;;;;;;2105141;28;20190;-72
2022/03/22 05:39:32;;;;;;;8.05;4.93;;;-0.40;95.50;;;;;;2097093;28;20204;-72
2022/03/22 05:40:32;;;;;;;9.10;5.53;;;-0.30;95.50;;;;;;2105145;28;20190;-72
2022/03/22 05:41:33;;;;;;;13.27;5.73;;;-0.40;95.10;;;;;;2113740;28;20323;-71
2022/03/22 05:42:37;;;;;;;7.47;5.00;;;-0.40;95.20;;;;;;2106072;28;20190;-71